sensor_id;sensor_type;location;lat;lon;timestamp;P1;durP1;ratioP1;P2;durP2;ratioP2
66402;SDS011;53212;52.112;5.144;2023-08-08T00:02:19;9.90;;;3.10;;
66402;SDS011;53212;52.112;5.144;2023-08-08T00:04:45;7.70;;;2.80;;
66402;SDS011;53212;52.112;5.144;2023-08-08T00:07:10;12.60;;;3.40;;
66402;SDS011;53212;52.112;5.144;2023-08-08T00:09:36;9.80;;;3.10;;
66402;SDS011;53212;52.112;5.144;2023-08-08T00:12:02;8.40;;;3.10;;
66402;SDS011;53212;52.112;5.144;2023-08-08T00:14:28;9.90;;;3.40;;
66402;SDS011;53212;52.112;5.144;2023-08-08T00:16:54;8.10;;;2.70;;
66402;SDS011;53212;52.112;5.144;2023-08-08T00:19:19;7.40;;;2.80;;
66402;SDS011;53212;52.112;5.144;2023-08-08T00:21:45;8.30;;;3.50;;
66402;SDS011;53212;52.112;5.144;2023-08-08T00:24:10;9.70;;;3.20;;
66402;SDS011;53212;52.112;5.144;2023-08-08T00:26:35;8.30;;;2.90;;
66402;SDS011;53212;52.112;5.144;2023-08-08T00:29:01;10.00;;;3.00;;
66402;SDS011;53212;52.112;5.144;2023-08-08T00:31:26;8.10;;;3.00;;
66402;SDS011;53212;52.112;5.144;2023-08-08T00:33:52;10.20;;;3.10;;
66402;SDS011;53212;52.112;5.144;2023-08-08T00:36:17;9.90;;;3.10;;
66402;SDS011;53212;52.112;5.144;2023-08-08T00:38:43;11.70;;;3.10;;
66402;SDS011;53212;52.112;5.144;2023-08-08T00:41:08;10.00;;;3.20;;
66402;SDS011;53212;52.112;5.144;2023-08-08T00:43:33;12.10;;;4.10;;
66402;SDS011;53212;52.112;5.144;2023-08-08T00:45:59;9.50;;;3.70;;
66402;SDS011;53212;52.112;5.144;2023-08-08T00:48:24;9.90;;;3.80;;
66402;SDS011;53212;52.112;5.144;2023-08-08T00:50:50;12.70;;;3.80;;
66402;SDS011;53212;52.112;5.144;2023-08-08T00:53:17;9.20;;;3.10;;
66402;SDS011;53212;52.112;5.144;2023-08-08T00:55:45;7.60;;;3.20;;
66402;SDS011;53212;52.112;5.144;2023-08-08T00:58:11;8.50;;;3.80;;
66402;SDS011;53212;52.112;5.144;2023-08-08T01:00:38;10.10;;;3.10;;
66402;SDS011;53212;52.112;5.144;2023-08-08T01:03:03;10.10;;;3.10;;
66402;SDS011;53212;52.112;5.144;2023-08-08T01:05:34;13.70;;;3.60;;
66402;SDS011;53212;52.112;5.144;2023-08-08T01:08:04;10.20;;;3.20;;
66402;SDS011;53212;52.112;5.144;2023-08-08T01:10:33;9.40;;;3.60;;
66402;SDS011;53212;52.112;5.144;2023-08-08T01:13:28;8.00;;;3.30;;
66402;SDS011;53212;52.112;5.144;2023-08-08T01:15:57;7.60;;;3.00;;
66402;SDS011;53212;52.112;5.144;2023-08-08T01:18:23;7.60;;;2.90;;
66402;SDS011;53212;52.112;5.144;2023-08-08T01:20:49;9.00;;;3.70;;
66402;SDS011;53212;52.112;5.144;2023-08-08T01:23:43;9.00;;;3.40;;
66402;SDS011;53212;52.112;5.144;2023-08-08T01:26:11;7.40;;;3.00;;
66402;SDS011;53212;52.112;5.144;2023-08-08T01:28:38;10.10;;;3.00;;
66402;SDS011;53212;52.112;5.144;2023-08-08T01:31:04;10.10;;;3.10;;
66402;SDS011;53212;52.112;5.144;2023-08-08T01:33:29;6.70;;;2.70;;
66402;SDS011;53212;52.112;5.144;2023-08-08T01:36:09;8.60;;;2.90;;
66402;SDS011;53212;52.112;5.144;2023-08-08T01:38:44;9.40;;;3.10;;
66402;SDS011;53212;52.112;5.144;2023-08-08T01:41:11;9.70;;;3.00;;
66402;SDS011;53212;52.112;5.144;2023-08-08T01:43:38;7.20;;;3.00;;
66402;SDS011;53212;52.112;5.144;2023-08-08T01:46:05;9.80;;;3.20;;
66402;SDS011;53212;52.112;5.144;2023-08-08T01:48:32;11.10;;;2.90;;
66402;SDS011;53212;52.112;5.144;2023-08-08T01:50:58;8.40;;;2.50;;
66402;SDS011;53212;52.112;5.144;2023-08-08T01:53:23;5.70;;;2.30;;
66402;SDS011;53212;52.112;5.144;2023-08-08T01:55:48;6.10;;;2.50;;
66402;SDS011;53212;52.112;5.144;2023-08-08T01:58:14;8.80;;;2.40;;
66402;SDS011;53212;52.112;5.144;2023-08-08T02:00:40;7.60;;;2.60;;
66402;SDS011;53212;52.112;5.144;2023-08-08T02:03:10;3.80;;;2.10;;
66402;SDS011;53212;52.112;5.144;2023-08-08T02:05:36;9.40;;;2.40;;
66402;SDS011;53212;52.112;5.144;2023-08-08T02:08:01;6.60;;;2.20;;
66402;SDS011;53212;52.112;5.144;2023-08-08T02:10:27;6.30;;;2.10;;
66402;SDS011;53212;52.112;5.144;2023-08-08T02:12:52;6.50;;;2.00;;
66402;SDS011;53212;52.112;5.144;2023-08-08T02:15:17;5.10;;;2.10;;
66402;SDS011;53212;52.112;5.144;2023-08-08T02:17:43;7.40;;;2.40;;
66402;SDS011;53212;52.112;5.144;2023-08-08T02:20:08;5.90;;;2.50;;
66402;SDS011;53212;52.112;5.144;2023-08-08T02:22:34;6.70;;;2.60;;
66402;SDS011;53212;52.112;5.144;2023-08-08T02:25:00;4.40;;;2.40;;
66402;SDS011;53212;52.112;5.144;2023-08-08T02:27:25;4.20;;;1.90;;
66402;SDS011;53212;52.112;5.144;2023-08-08T02:29:51;3.40;;;1.80;;
66402;SDS011;53212;52.112;5.144;2023-08-08T02:32:16;5.70;;;2.00;;
66402;SDS011;53212;52.112;5.144;2023-08-08T02:34:41;10.30;;;2.60;;
66402;SDS011;53212;52.112;5.144;2023-08-08T02:37:07;6.10;;;2.40;;
66402;SDS011;53212;52.112;5.144;2023-08-08T02:39:33;6.40;;;2.40;;
66402;SDS011;53212;52.112;5.144;2023-08-08T02:41:59;5.70;;;2.10;;
66402;SDS011;53212;52.112;5.144;2023-08-08T02:44:24;5.10;;;2.20;;
66402;SDS011;53212;52.112;5.144;2023-08-08T02:46:50;8.20;;;2.80;;
66402;SDS011;53212;52.112;5.144;2023-08-08T02:49:15;5.10;;;2.30;;
66402;SDS011;53212;52.112;5.144;2023-08-08T02:51:40;5.80;;;2.50;;
66402;SDS011;53212;52.112;5.144;2023-08-08T02:54:06;5.30;;;2.50;;
66402;SDS011;53212;52.112;5.144;2023-08-08T02:56:31;5.70;;;2.20;;
66402;SDS011;53212;52.112;5.144;2023-08-08T02:58:57;5.20;;;2.40;;
66402;SDS011;53212;52.112;5.144;2023-08-08T03:01:23;4.20;;;2.00;;
66402;SDS011;53212;52.112;5.144;2023-08-08T03:03:49;8.10;;;3.00;;
66402;SDS011;53212;52.112;5.144;2023-08-08T03:06:14;8.70;;;2.30;;
66402;SDS011;53212;52.112;5.144;2023-08-08T03:08:40;5.10;;;2.60;;
66402;SDS011;53212;52.112;5.144;2023-08-08T03:11:05;6.20;;;2.50;;
66402;SDS011;53212;52.112;5.144;2023-08-08T03:13:31;6.30;;;2.50;;
66402;SDS011;53212;52.112;5.144;2023-08-08T03:15:56;4.40;;;2.00;;
66402;SDS011;53212;52.112;5.144;2023-08-08T03:18:22;8.50;;;2.70;;
66402;SDS011;53212;52.112;5.144;2023-08-08T03:20:48;6.70;;;2.20;;
66402;SDS011;53212;52.112;5.144;2023-08-08T03:23:14;6.80;;;2.40;;
66402;SDS011;53212;52.112;5.144;2023-08-08T03:25:39;3.80;;;1.90;;
66402;SDS011;53212;52.112;5.144;2023-08-08T03:28:05;4.00;;;2.00;;
66402;SDS011;53212;52.112;5.144;2023-08-08T03:30:30;3.10;;;1.80;;
66402;SDS011;53212;52.112;5.144;2023-08-08T03:32:56;4.20;;;1.70;;
66402;SDS011;53212;52.112;5.144;2023-08-08T03:35:21;8.30;;;2.10;;
66402;SDS011;53212;52.112;5.144;2023-08-08T03:37:46;3.70;;;2.10;;
66402;SDS011;53212;52.112;5.144;2023-08-08T03:40:12;8.00;;;2.30;;
66402;SDS011;53212;52.112;5.144;2023-08-08T03:42:39;4.00;;;1.80;;
66402;SDS011;53212;52.112;5.144;2023-08-08T03:45:05;6.50;;;1.90;;
66402;SDS011;53212;52.112;5.144;2023-08-08T03:47:31;5.90;;;2.20;;
66402;SDS011;53212;52.112;5.144;2023-08-08T03:49:57;4.30;;;2.00;;
66402;SDS011;53212;52.112;5.144;2023-08-08T03:52:23;4.50;;;2.30;;
66402;SDS011;53212;52.112;5.144;2023-08-08T03:54:49;6.70;;;1.90;;
66402;SDS011;53212;52.112;5.144;2023-08-08T03:57:15;5.80;;;2.30;;
66402;SDS011;53212;52.112;5.144;2023-08-08T03:59:41;7.10;;;2.10;;
66402;SDS011;53212;52.112;5.144;2023-08-08T04:02:06;4.20;;;1.80;;
66402;SDS011;53212;52.112;5.144;2023-08-08T04:04:32;1.90;;;1.70;;
66402;SDS011;53212;52.112;5.144;2023-08-08T04:06:57;4.00;;;1.50;;
66402;SDS011;53212;52.112;5.144;2023-08-08T04:09:22;2.50;;;1.40;;
66402;SDS011;53212;52.112;5.144;2023-08-08T04:11:48;3.60;;;1.40;;
66402;SDS011;53212;52.112;5.144;2023-08-08T04:14:13;4.30;;;1.80;;
66402;SDS011;53212;52.112;5.144;2023-08-08T04:16:39;8.00;;;1.80;;
66402;SDS011;53212;52.112;5.144;2023-08-08T04:19:05;2.40;;;1.40;;
66402;SDS011;53212;52.112;5.144;2023-08-08T04:21:30;4.30;;;2.00;;
66402;SDS011;53212;52.112;5.144;2023-08-08T04:23:58;6.10;;;2.30;;
66402;SDS011;53212;52.112;5.144;2023-08-08T04:26:25;7.70;;;3.40;;
66402;SDS011;53212;52.112;5.144;2023-08-08T04:28:51;5.00;;;2.30;;
66402;SDS011;53212;52.112;5.144;2023-08-08T04:31:16;3.40;;;2.30;;
66402;SDS011;53212;52.112;5.144;2023-08-08T04:33:42;4.50;;;1.70;;
66402;SDS011;53212;52.112;5.144;2023-08-08T04:36:07;3.40;;;1.80;;
66402;SDS011;53212;52.112;5.144;2023-08-08T04:38:33;4.30;;;1.80;;
66402;SDS011;53212;52.112;5.144;2023-08-08T04:40:58;3.60;;;1.60;;
66402;SDS011;53212;52.112;5.144;2023-08-08T04:43:25;5.50;;;1.60;;
66402;SDS011;53212;52.112;5.144;2023-08-08T04:45:53;4.80;;;1.90;;
66402;SDS011;53212;52.112;5.144;2023-08-08T04:48:18;6.70;;;1.70;;
66402;SDS011;53212;52.112;5.144;2023-08-08T04:50:47;4.50;;;2.00;;
66402;SDS011;53212;52.112;5.144;2023-08-08T04:53:12;3.90;;;1.70;;
66402;SDS011;53212;52.112;5.144;2023-08-08T04:55:38;3.80;;;1.90;;
66402;SDS011;53212;52.112;5.144;2023-08-08T04:58:04;5.70;;;2.40;;
66402;SDS011;53212;52.112;5.144;2023-08-08T05:00:30;4.60;;;1.80;;
66402;SDS011;53212;52.112;5.144;2023-08-08T05:02:55;5.90;;;2.00;;
66402;SDS011;53212;52.112;5.144;2023-08-08T05:05:21;6.10;;;2.30;;
66402;SDS011;53212;52.112;5.144;2023-08-08T05:07:46;6.10;;;2.20;;
66402;SDS011;53212;52.112;5.144;2023-08-08T05:10:12;4.50;;;2.00;;
66402;SDS011;53212;52.112;5.144;2023-08-08T05:12:37;4.00;;;1.90;;
66402;SDS011;53212;52.112;5.144;2023-08-08T05:15:04;4.30;;;2.10;;
66402;SDS011;53212;52.112;5.144;2023-08-08T05:17:30;4.30;;;2.10;;
66402;SDS011;53212;52.112;5.144;2023-08-08T05:19:59;4.50;;;2.20;;
66402;SDS011;53212;52.112;5.144;2023-08-08T05:22:25;4.60;;;2.00;;
66402;SDS011;53212;52.112;5.144;2023-08-08T05:24:50;4.00;;;1.90;;
66402;SDS011;53212;52.112;5.144;2023-08-08T05:27:16;4.30;;;2.10;;
66402;SDS011;53212;52.112;5.144;2023-08-08T05:29:41;2.20;;;1.70;;
66402;SDS011;53212;52.112;5.144;2023-08-08T05:32:07;4.40;;;2.00;;
66402;SDS011;53212;52.112;5.144;2023-08-08T05:34:33;3.50;;;1.50;;
66402;SDS011;53212;52.112;5.144;2023-08-08T05:36:59;2.80;;;1.60;;
66402;SDS011;53212;52.112;5.144;2023-08-08T05:39:25;3.60;;;1.90;;
66402;SDS011;53212;52.112;5.144;2023-08-08T05:41:50;4.90;;;2.10;;
66402;SDS011;53212;52.112;5.144;2023-08-08T05:44:17;6.40;;;1.60;;
66402;SDS011;53212;52.112;5.144;2023-08-08T05:46:42;7.10;;;1.80;;
66402;SDS011;53212;52.112;5.144;2023-08-08T05:49:07;3.90;;;1.60;;
66402;SDS011;53212;52.112;5.144;2023-08-08T05:51:33;6.80;;;1.60;;
66402;SDS011;53212;52.112;5.144;2023-08-08T05:53:59;3.70;;;1.50;;
66402;SDS011;53212;52.112;5.144;2023-08-08T05:56:24;3.70;;;1.20;;
66402;SDS011;53212;52.112;5.144;2023-08-08T05:58:50;4.00;;;1.90;;
66402;SDS011;53212;52.112;5.144;2023-08-08T06:01:15;2.10;;;1.20;;
66402;SDS011;53212;52.112;5.144;2023-08-08T06:03:41;3.80;;;1.30;;
66402;SDS011;53212;52.112;5.144;2023-08-08T06:06:07;2.50;;;1.10;;
66402;SDS011;53212;52.112;5.144;2023-08-08T06:08:33;3.80;;;1.20;;
66402;SDS011;53212;52.112;5.144;2023-08-08T06:10:58;6.10;;;1.40;;
66402;SDS011;53212;52.112;5.144;2023-08-08T06:13:24;6.00;;;1.20;;
66402;SDS011;53212;52.112;5.144;2023-08-08T06:15:49;3.50;;;1.70;;
66402;SDS011;53212;52.112;5.144;2023-08-08T06:18:16;2.80;;;1.00;;
66402;SDS011;53212;52.112;5.144;2023-08-08T06:20:42;3.10;;;1.10;;
66402;SDS011;53212;52.112;5.144;2023-08-08T06:23:08;1.50;;;1.00;;
66402;SDS011;53212;52.112;5.144;2023-08-08T06:25:33;2.60;;;1.00;;
66402;SDS011;53212;52.112;5.144;2023-08-08T06:27:59;4.40;;;1.10;;
66402;SDS011;53212;52.112;5.144;2023-08-08T06:30:24;3.00;;;1.20;;
66402;SDS011;53212;52.112;5.144;2023-08-08T06:32:50;2.80;;;1.20;;
66402;SDS011;53212;52.112;5.144;2023-08-08T06:35:15;3.20;;;1.10;;
66402;SDS011;53212;52.112;5.144;2023-08-08T06:37:42;1.40;;;1.10;;
66402;SDS011;53212;52.112;5.144;2023-08-08T06:40:09;4.10;;;1.10;;
66402;SDS011;53212;52.112;5.144;2023-08-08T06:42:36;2.20;;;0.90;;
66402;SDS011;53212;52.112;5.144;2023-08-08T06:45:01;2.50;;;0.90;;
66402;SDS011;53212;52.112;5.144;2023-08-08T06:47:27;3.30;;;0.90;;
66402;SDS011;53212;52.112;5.144;2023-08-08T06:49:52;1.90;;;0.90;;
66402;SDS011;53212;52.112;5.144;2023-08-08T06:52:18;3.00;;;1.20;;
66402;SDS011;53212;52.112;5.144;2023-08-08T06:54:43;1.80;;;0.90;;
66402;SDS011;53212;52.112;5.144;2023-08-08T06:57:09;6.90;;;1.80;;
66402;SDS011;53212;52.112;5.144;2023-08-08T06:59:34;2.60;;;0.90;;
66402;SDS011;53212;52.112;5.144;2023-08-08T07:02:00;2.60;;;1.00;;
66402;SDS011;53212;52.112;5.144;2023-08-08T07:04:26;2.10;;;0.70;;
66402;SDS011;53212;52.112;5.144;2023-08-08T07:06:51;2.90;;;1.00;;
66402;SDS011;53212;52.112;5.144;2023-08-08T07:09:17;1.50;;;0.90;;
66402;SDS011;53212;52.112;5.144;2023-08-08T07:11:42;2.20;;;0.90;;
66402;SDS011;53212;52.112;5.144;2023-08-08T07:14:08;4.60;;;1.10;;
66402;SDS011;53212;52.112;5.144;2023-08-08T07:16:33;3.00;;;0.80;;
66402;SDS011;53212;52.112;5.144;2023-08-08T07:18:59;2.80;;;0.90;;
66402;SDS011;53212;52.112;5.144;2023-08-08T07:21:25;1.90;;;0.80;;
66402;SDS011;53212;52.112;5.144;2023-08-08T07:23:51;2.70;;;1.10;;
66402;SDS011;53212;52.112;5.144;2023-08-08T07:26:17;1.70;;;0.70;;
66402;SDS011;53212;52.112;5.144;2023-08-08T07:28:42;2.30;;;1.00;;
66402;SDS011;53212;52.112;5.144;2023-08-08T07:31:08;1.50;;;0.70;;
66402;SDS011;53212;52.112;5.144;2023-08-08T07:33:33;3.60;;;0.70;;
66402;SDS011;53212;52.112;5.144;2023-08-08T07:35:59;2.10;;;0.80;;
66402;SDS011;53212;52.112;5.144;2023-08-08T07:38:24;4.00;;;0.80;;
66402;SDS011;53212;52.112;5.144;2023-08-08T07:40:50;1.60;;;0.80;;
66402;SDS011;53212;52.112;5.144;2023-08-08T07:43:15;2.40;;;1.00;;
66402;SDS011;53212;52.112;5.144;2023-08-08T07:45:41;4.00;;;1.00;;
66402;SDS011;53212;52.112;5.144;2023-08-08T07:48:07;3.50;;;1.00;;
66402;SDS011;53212;52.112;5.144;2023-08-08T07:50:33;2.00;;;0.80;;
66402;SDS011;53212;52.112;5.144;2023-08-08T07:52:58;4.00;;;0.90;;
66402;SDS011;53212;52.112;5.144;2023-08-08T07:55:24;1.10;;;0.60;;
66402;SDS011;53212;52.112;5.144;2023-08-08T07:57:49;1.60;;;0.80;;
66402;SDS011;53212;52.112;5.144;2023-08-08T08:00:15;3.10;;;0.80;;
66402;SDS011;53212;52.112;5.144;2023-08-08T08:02:44;3.80;;;0.80;;
66402;SDS011;53212;52.112;5.144;2023-08-08T08:05:11;2.30;;;0.70;;
66402;SDS011;53212;52.112;5.144;2023-08-08T08:07:37;1.80;;;0.70;;
66402;SDS011;53212;52.112;5.144;2023-08-08T08:10:06;0.80;;;0.60;;
66402;SDS011;53212;52.112;5.144;2023-08-08T08:12:34;1.60;;;0.70;;
66402;SDS011;53212;52.112;5.144;2023-08-08T08:15:01;0.70;;;0.70;;
66402;SDS011;53212;52.112;5.144;2023-08-08T08:17:27;1.70;;;0.80;;
66402;SDS011;53212;52.112;5.144;2023-08-08T08:19:55;1.70;;;0.80;;
66402;SDS011;53212;52.112;5.144;2023-08-08T08:22:20;1.90;;;0.80;;
66402;SDS011;53212;52.112;5.144;2023-08-08T08:24:46;1.30;;;0.40;;
66402;SDS011;53212;52.112;5.144;2023-08-08T08:27:12;1.20;;;0.60;;
66402;SDS011;53212;52.112;5.144;2023-08-08T08:29:39;2.20;;;0.80;;
66402;SDS011;53212;52.112;5.144;2023-08-08T08:32:05;1.00;;;0.60;;
66402;SDS011;53212;52.112;5.144;2023-08-08T08:34:30;1.50;;;0.60;;
66402;SDS011;53212;52.112;5.144;2023-08-08T08:36:57;1.70;;;0.70;;
66402;SDS011;53212;52.112;5.144;2023-08-08T08:39:22;2.20;;;0.60;;
66402;SDS011;53212;52.112;5.144;2023-08-08T08:41:50;1.10;;;0.70;;
66402;SDS011;53212;52.112;5.144;2023-08-08T08:44:22;2.10;;;0.60;;
66402;SDS011;53212;52.112;5.144;2023-08-08T08:46:48;4.20;;;1.00;;
66402;SDS011;53212;52.112;5.144;2023-08-08T08:49:17;1.10;;;0.60;;
66402;SDS011;53212;52.112;5.144;2023-08-08T08:51:44;0.60;;;0.60;;
66402;SDS011;53212;52.112;5.144;2023-08-08T08:54:10;2.00;;;0.80;;
66402;SDS011;53212;52.112;5.144;2023-08-08T08:56:36;1.00;;;0.60;;
66402;SDS011;53212;52.112;5.144;2023-08-08T08:59:01;2.00;;;0.60;;
66402;SDS011;53212;52.112;5.144;2023-08-08T09:01:27;1.70;;;0.60;;
66402;SDS011;53212;52.112;5.144;2023-08-08T09:03:53;0.90;;;0.70;;
66402;SDS011;53212;52.112;5.144;2023-08-08T09:06:20;0.80;;;0.60;;
66402;SDS011;53212;52.112;5.144;2023-08-08T09:08:48;1.30;;;0.70;;
66402;SDS011;53212;52.112;5.144;2023-08-08T09:11:14;2.80;;;0.70;;
66402;SDS011;53212;52.112;5.144;2023-08-08T09:13:40;2.80;;;0.80;;
66402;SDS011;53212;52.112;5.144;2023-08-08T09:16:06;3.70;;;0.80;;
66402;SDS011;53212;52.112;5.144;2023-08-08T09:18:33;1.30;;;0.70;;
66402;SDS011;53212;52.112;5.144;2023-08-08T09:21:00;2.50;;;0.90;;
66402;SDS011;53212;52.112;5.144;2023-08-08T09:23:25;3.00;;;1.10;;
66402;SDS011;53212;52.112;5.144;2023-08-08T09:25:51;2.50;;;0.80;;
66402;SDS011;53212;52.112;5.144;2023-08-08T09:28:17;3.80;;;0.80;;
66402;SDS011;53212;52.112;5.144;2023-08-08T09:30:42;1.80;;;1.00;;
66402;SDS011;53212;52.112;5.144;2023-08-08T09:33:08;1.10;;;0.80;;
66402;SDS011;53212;52.112;5.144;2023-08-08T09:35:33;1.20;;;0.70;;
66402;SDS011;53212;52.112;5.144;2023-08-08T09:37:59;3.40;;;0.90;;
66402;SDS011;53212;52.112;5.144;2023-08-08T09:40:25;2.10;;;0.90;;
66402;SDS011;53212;52.112;5.144;2023-08-08T09:42:51;0.80;;;0.60;;
66402;SDS011;53212;52.112;5.144;2023-08-08T09:45:20;1.90;;;0.90;;
66402;SDS011;53212;52.112;5.144;2023-08-08T09:47:46;2.00;;;0.90;;
66402;SDS011;53212;52.112;5.144;2023-08-08T09:50:11;1.60;;;0.70;;
66402;SDS011;53212;52.112;5.144;2023-08-08T09:52:38;1.60;;;0.70;;
66402;SDS011;53212;52.112;5.144;2023-08-08T09:55:06;2.10;;;0.70;;
66402;SDS011;53212;52.112;5.144;2023-08-08T09:57:32;1.90;;;0.70;;
66402;SDS011;53212;52.112;5.144;2023-08-08T09:59:58;2.30;;;1.00;;
66402;SDS011;53212;52.112;5.144;2023-08-08T10:02:24;1.10;;;0.70;;
66402;SDS011;53212;52.112;5.144;2023-08-08T10:04:50;2.30;;;0.70;;
66402;SDS011;53212;52.112;5.144;2023-08-08T10:07:17;4.30;;;0.80;;
66402;SDS011;53212;52.112;5.144;2023-08-08T10:09:43;5.40;;;1.00;;
66402;SDS011;53212;52.112;5.144;2023-08-08T10:12:08;1.90;;;0.80;;
66402;SDS011;53212;52.112;5.144;2023-08-08T10:14:37;2.80;;;0.90;;
66402;SDS011;53212;52.112;5.144;2023-08-08T10:17:04;1.80;;;0.70;;
66402;SDS011;53212;52.112;5.144;2023-08-08T10:19:30;1.50;;;0.80;;
66402;SDS011;53212;52.112;5.144;2023-08-08T10:22:03;0.80;;;0.60;;
66402;SDS011;53212;52.112;5.144;2023-08-08T10:24:36;1.40;;;0.70;;
66402;SDS011;53212;52.112;5.144;2023-08-08T10:27:03;0.80;;;0.70;;
66402;SDS011;53212;52.112;5.144;2023-08-08T10:29:32;2.60;;;1.00;;
66402;SDS011;53212;52.112;5.144;2023-08-08T10:32:06;2.20;;;0.90;;
66402;SDS011;53212;52.112;5.144;2023-08-08T10:34:43;1.40;;;0.70;;
66402;SDS011;53212;52.112;5.144;2023-08-08T10:37:14;2.20;;;0.80;;
66402;SDS011;53212;52.112;5.144;2023-08-08T10:39:59;2.50;;;0.70;;
66402;SDS011;53212;52.112;5.144;2023-08-08T10:42:28;0.70;;;0.70;;
66402;SDS011;53212;52.112;5.144;2023-08-08T10:44:57;3.20;;;0.90;;
66402;SDS011;53212;52.112;5.144;2023-08-08T10:47:24;0.80;;;0.70;;
66402;SDS011;53212;52.112;5.144;2023-08-08T10:52:31;1.00;;;0.50;;
66402;SDS011;53212;52.112;5.144;2023-08-08T10:55:01;0.70;;;0.60;;
66402;SDS011;53212;52.112;5.144;2023-08-08T10:57:27;1.30;;;0.80;;
66402;SDS011;53212;52.112;5.144;2023-08-08T10:59:53;1.10;;;0.60;;
66402;SDS011;53212;52.112;5.144;2023-08-08T11:02:20;1.80;;;0.70;;
66402;SDS011;53212;52.112;5.144;2023-08-08T11:04:46;4.70;;;0.80;;
66402;SDS011;53212;52.112;5.144;2023-08-08T11:07:14;2.10;;;0.70;;
66402;SDS011;53212;52.112;5.144;2023-08-08T11:09:40;0.70;;;0.60;;
66402;SDS011;53212;52.112;5.144;2023-08-08T11:12:13;1.20;;;0.80;;
66402;SDS011;53212;52.112;5.144;2023-08-08T11:14:40;0.70;;;0.60;;
66402;SDS011;53212;52.112;5.144;2023-08-08T11:17:05;2.50;;;0.60;;
66402;SDS011;53212;52.112;5.144;2023-08-08T11:19:31;2.00;;;0.80;;
66402;SDS011;53212;52.112;5.144;2023-08-08T11:22:09;0.60;;;0.60;;
66402;SDS011;53212;52.112;5.144;2023-08-08T11:24:35;1.10;;;0.60;;
66402;SDS011;53212;52.112;5.144;2023-08-08T11:27:01;1.20;;;0.90;;
66402;SDS011;53212;52.112;5.144;2023-08-08T11:29:26;2.20;;;0.70;;
66402;SDS011;53212;52.112;5.144;2023-08-08T11:31:56;2.50;;;0.70;;
66402;SDS011;53212;52.112;5.144;2023-08-08T11:34:24;6.90;;;1.00;;
66402;SDS011;53212;52.112;5.144;2023-08-08T11:36:49;1.90;;;0.70;;
66402;SDS011;53212;52.112;5.144;2023-08-08T11:39:15;0.90;;;0.60;;
66402;SDS011;53212;52.112;5.144;2023-08-08T11:41:42;2.00;;;0.90;;
66402;SDS011;53212;52.112;5.144;2023-08-08T11:44:07;1.60;;;0.70;;
66402;SDS011;53212;52.112;5.144;2023-08-08T11:46:33;2.00;;;0.90;;
66402;SDS011;53212;52.112;5.144;2023-08-08T11:49:04;2.00;;;0.70;;
66402;SDS011;53212;52.112;5.144;2023-08-08T11:51:32;1.10;;;0.60;;
66402;SDS011;53212;52.112;5.144;2023-08-08T11:54:00;1.40;;;0.80;;
66402;SDS011;53212;52.112;5.144;2023-08-08T11:56:27;0.70;;;0.60;;
66402;SDS011;53212;52.112;5.144;2023-08-08T11:58:54;2.50;;;0.90;;
66402;SDS011;53212;52.112;5.144;2023-08-08T12:01:25;1.40;;;0.70;;
66402;SDS011;53212;52.112;5.144;2023-08-08T12:03:52;1.40;;;0.80;;
66402;SDS011;53212;52.112;5.144;2023-08-08T12:06:18;1.30;;;0.60;;
66402;SDS011;53212;52.112;5.144;2023-08-08T12:08:45;3.90;;;0.70;;
66402;SDS011;53212;52.112;5.144;2023-08-08T12:11:12;2.50;;;0.70;;
66402;SDS011;53212;52.112;5.144;2023-08-08T12:13:41;1.30;;;0.80;;
66402;SDS011;53212;52.112;5.144;2023-08-08T12:16:12;1.50;;;0.70;;
66402;SDS011;53212;52.112;5.144;2023-08-08T12:18:39;2.60;;;1.00;;
66402;SDS011;53212;52.112;5.144;2023-08-08T12:21:06;4.90;;;1.00;;
66402;SDS011;53212;52.112;5.144;2023-08-08T12:23:34;3.00;;;0.80;;
66402;SDS011;53212;52.112;5.144;2023-08-08T12:26:00;2.10;;;0.70;;
66402;SDS011;53212;52.112;5.144;2023-08-08T12:28:30;1.80;;;0.90;;
66402;SDS011;53212;52.112;5.144;2023-08-08T12:30:55;2.20;;;0.80;;
66402;SDS011;53212;52.112;5.144;2023-08-08T12:33:21;2.80;;;0.90;;
66402;SDS011;53212;52.112;5.144;2023-08-08T12:35:47;1.30;;;0.80;;
66402;SDS011;53212;52.112;5.144;2023-08-08T12:38:14;2.10;;;1.00;;
66402;SDS011;53212;52.112;5.144;2023-08-08T12:40:40;1.00;;;0.50;;
66402;SDS011;53212;52.112;5.144;2023-08-08T12:43:05;2.40;;;0.80;;
66402;SDS011;53212;52.112;5.144;2023-08-08T12:45:31;3.70;;;0.90;;
66402;SDS011;53212;52.112;5.144;2023-08-08T12:47:56;1.70;;;0.60;;
66402;SDS011;53212;52.112;5.144;2023-08-08T12:50:22;1.00;;;0.70;;
66402;SDS011;53212;52.112;5.144;2023-08-08T12:52:48;1.30;;;0.80;;
66402;SDS011;53212;52.112;5.144;2023-08-08T12:55:14;1.10;;;0.70;;
66402;SDS011;53212;52.112;5.144;2023-08-08T12:57:42;3.00;;;0.90;;
66402;SDS011;53212;52.112;5.144;2023-08-08T13:00:08;1.40;;;0.70;;
66402;SDS011;53212;52.112;5.144;2023-08-08T13:02:34;1.40;;;0.80;;
66402;SDS011;53212;52.112;5.144;2023-08-08T13:04:59;1.60;;;0.70;;
66402;SDS011;53212;52.112;5.144;2023-08-08T13:07:25;1.30;;;0.80;;
66402;SDS011;53212;52.112;5.144;2023-08-08T13:09:51;1.60;;;0.90;;
66402;SDS011;53212;52.112;5.144;2023-08-08T13:12:16;4.10;;;0.90;;
66402;SDS011;53212;52.112;5.144;2023-08-08T13:14:42;1.30;;;0.80;;
66402;SDS011;53212;52.112;5.144;2023-08-08T13:17:07;2.90;;;1.10;;
66402;SDS011;53212;52.112;5.144;2023-08-08T13:19:34;3.30;;;0.90;;
66402;SDS011;53212;52.112;5.144;2023-08-08T13:22:00;2.20;;;0.70;;
66402;SDS011;53212;52.112;5.144;2023-08-08T13:24:25;1.90;;;0.70;;
66402;SDS011;53212;52.112;5.144;2023-08-08T13:26:51;2.50;;;1.00;;
66402;SDS011;53212;52.112;5.144;2023-08-08T13:29:16;1.30;;;0.90;;
66402;SDS011;53212;52.112;5.144;2023-08-08T13:31:42;1.10;;;0.90;;
66402;SDS011;53212;52.112;5.144;2023-08-08T13:34:08;1.50;;;0.80;;
66402;SDS011;53212;52.112;5.144;2023-08-08T13:36:34;0.80;;;0.80;;
66402;SDS011;53212;52.112;5.144;2023-08-08T13:38:59;2.20;;;0.80;;
66402;SDS011;53212;52.112;5.144;2023-08-08T13:41:25;2.70;;;0.60;;
66402;SDS011;53212;52.112;5.144;2023-08-08T13:43:50;2.60;;;0.90;;
66402;SDS011;53212;52.112;5.144;2023-08-08T13:46:16;1.50;;;0.80;;
66402;SDS011;53212;52.112;5.144;2023-08-08T13:48:41;2.80;;;0.70;;
66402;SDS011;53212;52.112;5.144;2023-08-08T13:51:07;4.70;;;1.20;;
66402;SDS011;53212;52.112;5.144;2023-08-08T13:53:33;2.60;;;1.00;;
66402;SDS011;53212;52.112;5.144;2023-08-08T13:55:59;2.50;;;1.10;;
66402;SDS011;53212;52.112;5.144;2023-08-08T13:58:24;1.40;;;1.00;;
66402;SDS011;53212;52.112;5.144;2023-08-08T14:00:50;1.10;;;0.90;;
66402;SDS011;53212;52.112;5.144;2023-08-08T14:03:16;2.50;;;0.90;;
66402;SDS011;53212;52.112;5.144;2023-08-08T14:05:42;3.50;;;1.00;;
66402;SDS011;53212;52.112;5.144;2023-08-08T14:08:08;1.70;;;0.70;;
66402;SDS011;53212;52.112;5.144;2023-08-08T14:10:35;3.40;;;1.00;;
66402;SDS011;53212;52.112;5.144;2023-08-08T14:13:00;1.70;;;0.90;;
66402;SDS011;53212;52.112;5.144;2023-08-08T14:15:26;2.60;;;0.90;;
66402;SDS011;53212;52.112;5.144;2023-08-08T14:17:52;2.70;;;0.90;;
66402;SDS011;53212;52.112;5.144;2023-08-08T14:20:18;2.90;;;0.90;;
66402;SDS011;53212;52.112;5.144;2023-08-08T14:22:45;1.20;;;0.70;;
66402;SDS011;53212;52.112;5.144;2023-08-08T14:25:14;4.70;;;1.10;;
66402;SDS011;53212;52.112;5.144;2023-08-08T14:27:40;1.10;;;0.90;;
66402;SDS011;53212;52.112;5.144;2023-08-08T14:30:06;0.80;;;0.80;;
66402;SDS011;53212;52.112;5.144;2023-08-08T14:32:32;3.30;;;1.10;;
66402;SDS011;53212;52.112;5.144;2023-08-08T14:34:58;2.30;;;0.90;;
66402;SDS011;53212;52.112;5.144;2023-08-08T14:37:23;0.80;;;0.60;;
66402;SDS011;53212;52.112;5.144;2023-08-08T14:39:49;1.80;;;1.00;;
66402;SDS011;53212;52.112;5.144;2023-08-08T14:42:14;2.40;;;1.00;;
66402;SDS011;53212;52.112;5.144;2023-08-08T14:44:39;1.70;;;1.10;;
66402;SDS011;53212;52.112;5.144;2023-08-08T14:47:05;3.40;;;1.00;;